Allegheny County Airport
KAGC : now visible

Airfield :











YOU CAN JOIN US ON...

 
LOGIN :

Register | Disclaimer

   EN    FR    IT 

 









Legend :    VFR   Marginal VFR   IFR   Intensive IFR   Very Intensive IFR
Visi :
Ceiling :
>= 8 km
>= 3000ft
5 to 8 km
1000 to 3000 ft
1500m to 5 km
500 to 1000 ft
800 to 1500m
200 to 500 ft
< 800m
< 200 ft
Symbols :   Thunderstorms  Fog  Heavy snow  Heavy precipitations  Wind > 20 kt






- Airport Elevation : 1252 ft
- IATA code : AGC


KAGC - Allegheny County

CURRENT METAR :
  • 290153Z 00000KT 10SM OVC012 11/10 A2999 RMK AO2 SLP163 T01110100

EXPIRED METARs :
  • 290053Z 00000KT 10SM OVC014 11/09 A3001 RMK AO2 SLP168 T01060094
  • 282353Z 00000KT 10SM OVC020 11/09 A3001 RMK AO2 SLP170 T01060094 10111 20100 55002

TAF KAGC
Valid from the 29 at 00:00 until the 30 at 00:00 UTC


282320Z 2900/2924 00000KT P6SM OVC015
FM290800 00000KT 6SM -RA BR OVC009
FM291100 04005KT 3SM -RA BR OVC005
FM291400 05006KT 2SM RA BR OVC004
FM292300 04009KT 3SM -RA BR OVC006
KZOB FIR / North America



MET'MAP, your aeronautical weather chart ! - Copyright ORBIFLY December 2007 - Disclaimer

ORBIFLY MET'MAP TEAM :

Programming & Development : Alexandra Zaïnal
Concept & original design : Baudouin d'Aumeries
Assistance for programming : Marc-Olivier Méhu
Technical & hardware support : Manuel Goepfert

Contact : metmap@orbifly.com




SOURCES & CREDITS :

   NOAA       Earth
Advisory